Time;durP1;ratioP1;P1;durP2;ratioP2;P2;SDS_P1;SDS_P2;PMS_P1;PMS_P2;Temp;Humidity;BMP_temperature;BMP_pressure;BME280_temperature;BME280_humidity;BME280_pressure;Samples;Min_cycle;Max_cycle;Signal;HPM_P1;HPM_P2
2023/01/26 05:00:40;;;;;;;40.33;22.52;;;2.30;99.90;;;;;;5737757;23;20063;-71
2023/01/26 05:03:08;;;;;;;40.95;21.67;;;2.30;99.90;;;;;;4856763;29;20065;-71
2023/01/26 05:05:37;;;;;;;40.75;20.63;;;2.30;99.90;;;;;;4854202;29;20064;-71
2023/01/26 05:08:05;;;;;;;35.80;20.83;;;2.40;99.90;;;;;;4878811;29;20729;-72
2023/01/26 05:10:33;;;;;;;39.85;21.83;;;2.40;99.90;;;;;;4864323;29;20421;-71
2023/01/26 05:13:19;;;;;;;40.20;22.33;;;4.60;99.90;;;;;;4863802;29;20100;-71
2023/01/26 05:16:06;;;;;;;38.50;21.08;;;2.30;99.90;;;;;;4858358;29;20049;-71
2023/01/26 05:18:44;;;;;;;34.97;20.00;;;2.30;99.90;;;;;;4845034;29;20053;-71
2023/01/26 05:21:34;;;;;;;39.17;21.25;;;2.40;99.90;;;;;;4868276;29;20854;-70
2023/01/26 05:24:05;;;;;;;40.15;21.02;;;4.90;99.90;;;;;;4873595;29;20103;-71
2023/01/26 05:27:19;;;;;;;36.67;20.70;;;2.40;99.90;;;;;;4859767;29;20190;-72
2023/01/26 05:29:40;;;;;;;37.33;21.05;;;4.80;99.90;;;;;;4872088;29;20534;-70
2023/01/26 05:32:07;;;;;;;35.85;20.75;;;2.50;99.90;;;;;;4870139;29;20056;-71
2023/01/26 05:34:35;;;;;;;37.22;20.08;;;2.50;99.90;;;;;;4841464;29;20045;-70
2023/01/26 05:37:02;;;;;;;39.25;21.20;;;2.60;99.90;;;;;;4857671;29;20045;-70
2023/01/26 05:39:31;;;;;;;35.58;20.38;;;2.60;99.90;;;;;;4871806;29;20127;-71
2023/01/26 05:41:59;;;;;;;39.38;22.92;;;2.60;99.90;;;;;;4869228;29;20142;-71
2023/01/26 05:44:56;;;;;;;35.20;19.90;;;2.60;99.90;;;;;;4858470;29;20208;-71
2023/01/26 05:47:23;;;;;;;39.60;21.05;;;2.40;99.90;;;;;;4853060;29;20659;-72
2023/01/26 05:49:51;;;;;;;35.83;19.02;;;2.90;99.90;;;;;;4822513;29;20045;-71
2023/01/26 05:52:23;;;;;;;35.53;18.85;;;2.60;99.90;;;;;;4852389;29;20061;-71
2023/01/26 05:54:50;;;;;;;36.63;21.95;;;3.40;99.90;;;;;;4863830;29;20144;-71
2023/01/26 05:57:19;;;;;;;39.20;21.10;;;2.50;99.90;;;;;;4824224;29;20057;-71
2023/01/26 05:59:50;;;;;;;37.95;22.38;;;2.50;99.90;;;;;;4869923;29;20517;-71
2023/01/26 06:02:17;;;;;;;36.78;21.35;;;2.50;99.90;;;;;;4855651;29;20049;-71
2023/01/26 06:04:45;;;;;;;34.75;20.90;;;3.20;99.90;;;;;;4855161;29;20041;-71
2023/01/26 06:07:13;;;;;;;36.17;21.33;;;2.50;99.90;;;;;;4855908;29;20514;-71
2023/01/26 06:09:46;;;;;;;33.10;20.33;;;2.50;99.90;;;;;;4827465;29;20050;-71
2023/01/26 06:12:34;;;;;;;34.90;20.13;;;2.50;99.90;;;;;;4872463;29;20059;-71
2023/01/26 06:15:11;;;;;;;35.08;20.55;;;2.50;99.90;;;;;;4823608;29;20050;-71
2023/01/26 06:17:44;;;;;;;36.60;21.00;;;2.60;99.90;;;;;;4836891;29;20056;-68
2023/01/26 06:20:13;;;;;;;34.72;20.92;;;2.50;99.90;;;;;;4843189;29;20053;-67
2023/01/26 06:22:46;;;;;;;32.47;19.88;;;2.40;99.90;;;;;;4874066;29;20101;-67
2023/01/26 06:25:12;;;;;;;36.00;19.95;;;2.50;99.90;;;;;;4874354;29;20481;-68
2023/01/26 06:27:41;;;;;;;38.08;21.58;;;2.40;99.90;;;;;;4858717;29;20426;-68
2023/01/26 06:30:34;;;;;;;37.90;19.70;;;2.40;99.90;;;;;;4871691;29;20583;-67
2023/01/26 06:33:06;;;;;;;37.63;20.15;;;2.50;99.90;;;;;;4840278;29;20053;-67
2023/01/26 06:35:36;;;;;;;34.10;20.52;;;2.40;99.90;;;;;;4854971;29;20053;-67
2023/01/26 06:38:08;;;;;;;38.03;21.85;;;2.40;99.90;;;;;;4854928;29;20048;-67
2023/01/26 06:40:35;;;;;;;37.17;21.38;;;4.30;99.90;;;;;;4855362;29;20133;-67
2023/01/26 06:43:02;;;;;;;42.10;22.83;;;2.40;99.90;;;;;;4843662;29;20071;-68
2023/01/26 06:45:31;;;;;;;34.53;19.85;;;2.40;99.90;;;;;;4839460;29;20455;-67
2023/01/26 06:47:58;;;;;;;42.10;20.70;;;3.00;99.90;;;;;;4839709;29;20571;-68
2023/01/26 06:50:31;;;;;;;37.65;18.67;;;2.50;99.90;;;;;;4839333;29;20136;-68
2023/01/26 06:52:59;;;;;;;34.30;19.60;;;2.60;99.90;;;;;;4864669;29;20144;-67
2023/01/26 06:55:51;;;;;;;33.03;18.73;;;3.10;99.90;;;;;;4842967;29;20049;-67
2023/01/26 06:58:32;;;;;;;30.38;18.27;;;4.60;99.90;;;;;;4841590;29;20197;-68
2023/01/26 07:01:22;;;;;;;33.53;17.85;;;2.40;99.90;;;;;;4861516;29;20492;-67
2023/01/26 07:03:53;;;;;;;36.50;19.57;;;2.30;99.90;;;;;;4859267;29;20577;-68
2023/01/26 07:06:20;;;;;;;31.15;20.67;;;2.40;99.90;;;;;;4838568;29;20407;-68
2023/01/26 07:08:47;;;;;;;31.70;18.05;;;2.50;99.90;;;;;;4854708;29;20510;-68
2023/01/26 07:11:15;;;;;;;33.15;19.40;;;2.40;99.90;;;;;;4860914;29;20119;-68
2023/01/26 07:13:42;;;;;;;31.15;17.00;;;2.30;99.90;;;;;;4865589;29;20142;-68
2023/01/26 07:16:11;;;;;;;32.30;19.08;;;2.40;99.90;;;;;;4856228;29;20129;-68
2023/01/26 07:18:38;;;;;;;30.13;17.70;;;2.30;99.90;;;;;;4839816;29;20064;-68
2023/01/26 07:21:14;;;;;;;30.75;16.88;;;2.40;99.90;;;;;;4843082;29;20070;-68
2023/01/26 07:23:41;;;;;;;34.03;20.17;;;2.30;99.90;;;;;;4873595;29;20762;-68
2023/01/26 07:26:08;;;;;;;40.72;24.15;;;2.50;99.90;;;;;;4836173;29;20114;-68
2023/01/26 07:28:35;;;;;;;35.58;23.55;;;2.40;99.90;;;;;;4837939;29;20049;-67
2023/01/26 07:31:05;;;;;;;;;;;3.60;99.90;;;;;;4855987;29;20049;-68
2023/01/26 07:33:33;;;;;;;32.88;18.35;;;2.40;99.90;;;;;;4850130;29;19988;-68
2023/01/26 07:36:01;;;;;;;29.45;18.42;;;2.30;99.90;;;;;;4853556;29;20049;-68
2023/01/26 07:38:28;;;;;;;30.90;18.88;;;2.30;99.90;;;;;;4853651;29;20053;-68
2023/01/26 07:40:56;;;;;;;28.70;17.85;;;2.40;99.90;;;;;;4851764;29;20057;-68
2023/01/26 07:43:22;;;;;;;29.55;17.55;;;2.50;99.90;;;;;;4839800;29;20669;-68
2023/01/26 07:45:53;;;;;;;30.98;20.55;;;2.50;99.90;;;;;;4854486;29;20054;-68
2023/01/26 07:48:22;;;;;;;26.80;17.08;;;2.80;99.90;;;;;;4850980;29;20124;-68
2023/01/26 07:50:50;;;;;;;25.45;15.65;;;3.00;99.90;;;;;;4839520;29;20141;-68
2023/01/26 07:53:18;;;;;;;26.98;17.25;;;2.40;99.90;;;;;;4865163;29;20053;-68
2023/01/26 07:55:45;;;;;;;25.13;17.00;;;2.50;99.90;;;;;;4857549;29;20049;-68
2023/01/26 07:58:12;;;;;;;30.23;19.33;;;2.50;99.90;;;;;;4844087;29;20053;-68
2023/01/26 08:00:40;;;;;;;32.67;19.67;;;2.50;99.90;;;;;;4849673;29;20048;-72
2023/01/26 08:03:07;;;;;;;31.13;17.92;;;2.60;99.90;;;;;;4842688;29;20053;-71
2023/01/26 08:05:35;;;;;;;30.05;17.58;;;2.50;99.90;;;;;;4858945;29;20046;-71
2023/01/26 08:08:03;;;;;;;26.15;16.50;;;2.50;99.90;;;;;;4842939;29;20060;-69
2023/01/26 08:10:30;;;;;;;31.02;18.58;;;2.60;99.90;;;;;;4858234;29;20064;-70
2023/01/26 08:13:01;;;;;;;26.55;16.38;;;2.60;99.90;;;;;;4858390;29;20046;-70
2023/01/26 08:15:28;;;;;;;25.25;15.10;;;2.50;99.90;;;;;;4841718;29;20084;-71
2023/01/26 08:17:55;;;;;;;30.50;17.77;;;2.60;99.90;;;;;;4864912;29;20041;-70
2023/01/26 08:20:22;;;;;;;25.02;14.90;;;2.50;99.90;;;;;;4829615;29;20060;-70
2023/01/26 08:22:49;;;;;;;32.78;16.27;;;2.60;99.90;;;;;;4863526;29;20037;-69
2023/01/26 08:25:16;;;;;;;26.55;15.93;;;2.60;99.90;;;;;;4859722;29;20069;-70
2023/01/26 08:27:43;;;;;;;21.17;13.93;;;2.50;99.90;;;;;;4860911;29;20053;-70
2023/01/26 08:30:11;;;;;;;18.27;12.25;;;2.50;99.90;;;;;;4862654;29;20044;-69
2023/01/26 08:32:39;;;;;;;17.90;11.18;;;2.60;99.90;;;;;;4866153;29;20049;-70
2023/01/26 08:35:06;;;;;;;19.50;11.88;;;2.60;99.90;;;;;;4863065;29;20056;-70
2023/01/26 08:37:33;;;;;;;18.55;12.25;;;2.60;99.90;;;;;;4862343;29;20114;-70
2023/01/26 08:40:00;;;;;;;16.27;11.30;;;2.60;99.90;;;;;;4863125;29;20041;-69
2023/01/26 08:42:27;;;;;;;20.20;12.38;;;2.60;99.90;;;;;;4878779;29;20777;-69
2023/01/26 08:44:54;;;;;;;19.50;12.95;;;2.50;99.90;;;;;;4852341;29;20042;-69
2023/01/26 08:47:21;;;;;;;18.73;12.02;;;2.70;99.90;;;;;;4860907;29;20049;-69
2023/01/26 08:49:49;;;;;;;20.77;13.90;;;2.60;99.90;;;;;;4847997;29;20045;-70
2023/01/26 08:52:15;;;;;;;20.15;12.25;;;3.50;99.90;;;;;;4865664;29;20057;-71
2023/01/26 08:54:43;;;;;;;19.63;12.80;;;3.70;99.90;;;;;;4862980;29;20597;-71
2023/01/26 08:57:11;;;;;;;14.88;11.35;;;2.60;99.90;;;;;;4865044;29;20076;-70
2023/01/26 08:59:43;;;;;;;17.58;12.10;;;2.70;99.90;;;;;;4855518;29;20049;-71
2023/01/26 09:02:10;;;;;;;19.00;12.15;;;2.60;99.90;;;;;;4863699;29;20523;-76
2023/01/26 09:04:38;;;;;;;15.90;10.90;;;3.70;99.90;;;;;;4843631;29;20057;-69
2023/01/26 09:07:05;;;;;;;15.57;11.05;;;2.80;99.90;;;;;;4840990;29;20137;-74
2023/01/26 09:09:32;;;;;;;17.27;11.90;;;2.70;99.90;;;;;;4848344;29;20044;-74
2023/01/26 09:11:59;;;;;;;18.60;11.27;;;2.80;99.90;;;;;;4846995;29;20511;-76
2023/01/26 09:14:27;;;;;;;17.25;10.55;;;3.60;99.90;;;;;;4853865;29;20050;-75
2023/01/26 09:16:57;;;;;;;19.52;12.13;;;2.70;99.90;;;;;;4838826;29;20050;-74
2023/01/26 09:19:24;;;;;;;18.67;12.38;;;2.60;99.90;;;;;;4838762;29;20073;-77
2023/01/26 09:21:52;;;;;;;15.63;10.93;;;2.80;99.90;;;;;;4845945;29;20109;-77
2023/01/26 09:24:20;;;;;;;17.33;11.35;;;2.60;99.90;;;;;;4856867;29;20041;-78
2023/01/26 09:26:51;;;;;;;16.30;11.43;;;2.70;99.90;;;;;;4857631;29;20050;-77
2023/01/26 09:29:19;;;;;;;15.40;11.40;;;4.60;99.90;;;;;;4829117;29;20050;-74
2023/01/26 09:31:48;;;;;;;15.57;11.85;;;2.90;99.90;;;;;;4848642;29;20101;-73
2023/01/26 09:34:16;;;;;;;15.82;11.65;;;2.50;99.90;;;;;;4829500;29;20058;-73
2023/01/26 09:36:43;;;;;;;15.48;11.70;;;2.60;99.90;;;;;;4836491;29;20053;-75
2023/01/26 09:39:10;;;;;;;15.20;11.32;;;4.20;99.90;;;;;;4833038;29;20153;-75
2023/01/26 09:41:36;;;;;;;14.27;10.80;;;2.60;99.90;;;;;;4819974;29;20060;-74
2023/01/26 09:44:08;;;;;;;13.02;10.55;;;2.40;99.90;;;;;;4833688;29;20062;-73
2023/01/26 09:46:58;;;;;;;13.80;10.77;;;2.40;99.90;;;;;;4798176;29;20274;-75
2023/01/26 09:49:47;;;;;;;13.43;10.48;;;2.40;99.90;;;;;;4769805;29;20524;-77
2023/01/26 09:52:26;;;;;;;12.75;9.88;;;2.30;99.90;;;;;;4773111;29;20474;-76
2023/01/26 09:55:02;;;;;;;12.38;9.02;;;2.40;99.90;;;;;;4785016;29;20077;-76
2023/01/26 09:57:45;;;;;;;12.95;9.00;;;2.30;99.90;;;;;;4769911;29;20134;-71
2023/01/26 10:00:17;;;;;;;12.15;9.65;;;2.40;99.90;;;;;;4775736;29;20058;-71
2023/01/26 10:03:25;;;;;;;11.27;8.93;;;2.30;99.90;;;;;;4817953;29;20851;-75
2023/01/26 10:05:57;;;;;;;11.27;8.45;;;2.40;99.90;;;;;;4835110;29;20089;-77
2023/01/26 10:08:48;;;;;;;9.23;7.47;;;2.20;99.90;;;;;;4854118;29;20065;-76
2023/01/26 10:11:27;;;;;;;9.38;8.02;;;2.40;99.90;;;;;;4873305;29;20060;-75
2023/01/26 10:14:00;;;;;;;13.23;8.33;;;2.30;99.90;;;;;;4834383;29;20458;-78
2023/01/26 10:16:28;;;;;;;13.43;8.57;;;3.50;99.90;;;;;;4839874;29;20337;-76
2023/01/26 10:19:02;;;;;;;10.30;7.10;;;2.30;99.90;;;;;;4864718;29;20810;-74
2023/01/26 10:21:36;;;;;;;9.55;7.28;;;2.50;99.90;;;;;;4855450;29;20049;-74
2023/01/26 10:24:04;;;;;;;10.63;8.50;;;2.40;99.90;;;;;;4844561;29;20049;-75
2023/01/26 10:26:32;;;;;;;10.13;7.97;;;2.40;99.90;;;;;;4878054;29;20479;-74
2023/01/26 10:28:59;;;;;;;9.75;8.35;;;2.50;99.90;;;;;;4847903;29;20056;-74
2023/01/26 10:31:29;;;;;;;9.25;7.22;;;2.40;99.90;;;;;;4857934;29;20049;-76
2023/01/26 10:34:11;;;;;;;11.88;7.72;;;2.40;99.90;;;;;;4846877;29;20814;-76
2023/01/26 10:36:40;;;;;;;11.50;7.65;;;2.40;99.90;;;;;;4863038;29;20045;-79
2023/01/26 10:39:08;;;;;;;10.48;7.82;;;3.60;99.90;;;;;;4846400;29;20493;-73
2023/01/26 10:41:36;;;;;;;10.55;7.68;;;2.50;99.90;;;;;;4834150;29;20060;-72
2023/01/26 10:44:08;;;;;;;8.23;7.32;;;2.50;99.90;;;;;;4845494;29;20717;-72
2023/01/26 10:46:41;;;;;;;9.55;8.10;;;2.60;99.90;;;;;;4862790;29;20076;-72
2023/01/26 10:49:08;;;;;;;9.45;7.80;;;2.50;99.90;;;;;;4841027;29;20543;-72
2023/01/26 10:51:37;;;;;;;10.90;9.15;;;3.40;99.90;;;;;;4863424;29;20416;-77
2023/01/26 10:54:20;;;;;;;10.45;8.50;;;2.50;99.90;;;;;;4860677;29;20061;-76
2023/01/26 10:56:50;;;;;;;12.05;8.57;;;2.60;99.90;;;;;;4847703;29;20156;-73
2023/01/26 10:59:26;;;;;;;9.27;8.30;;;2.50;99.90;;;;;;4848022;29;20053;-75
2023/01/26 11:02:18;;;;;;;9.23;8.13;;;2.50;99.90;;;;;;4842334;29;20057;-75
2023/01/26 11:05:03;;;;;;;12.48;8.18;;;2.50;99.90;;;;;;4837736;29;20472;-76
2023/01/26 11:07:44;;;;;;;11.40;8.25;;;2.80;99.90;;;;;;4859191;29;20586;-75
2023/01/26 11:10:28;;;;;;;11.13;9.57;;;2.60;99.90;;;;;;4851909;29;20068;-73
2023/01/26 11:13:16;;;;;;;13.07;9.85;;;2.60;99.90;;;;;;4865993;29;20056;-74
2023/01/26 11:15:48;;;;;;;11.85;8.95;;;3.30;99.90;;;;;;4835368;29;20061;-76
2023/01/26 11:18:35;;;;;;;8.02;7.18;;;4.10;99.90;;;;;;4845400;29;20194;-75
2023/01/26 11:21:08;;;;;;;9.57;8.07;;;2.60;99.90;;;;;;4860286;29;20056;-75
2023/01/26 11:23:45;;;;;;;10.57;7.95;;;2.60;99.90;;;;;;4864245;29;20045;-73
2023/01/26 11:26:33;;;;;;;10.25;7.65;;;4.20;99.90;;;;;;4865917;29;20100;-75
2023/01/26 11:29:13;;;;;;;10.17;8.50;;;2.60;99.90;;;;;;4873773;29;20056;-75
2023/01/26 11:32:46;;;;;;;10.30;8.02;;;2.60;99.70;;;;;;4872949;29;20053;-74
2023/01/26 11:35:46;;;;;;;8.13;7.03;;;2.60;99.60;;;;;;4854074;29;20133;-70
2023/01/26 11:38:28;;;;;;;7.72;6.95;;;2.50;99.50;;;;;;4834218;29;20236;-71
2023/01/26 11:41:30;;;;;;;11.00;9.65;;;2.50;99.60;;;;;;4854039;29;20045;-70
2023/01/26 11:44:12;;;;;;;14.25;9.32;;;2.60;99.80;;;;;;4855669;29;20052;-70
2023/01/26 11:46:51;;;;;;;8.70;7.28;;;2.60;99.00;;;;;;4852103;29;20098;-70
2023/01/26 11:49:33;;;;;;;8.93;7.70;;;2.50;99.00;;;;;;4848246;29;20578;-70
2023/01/26 11:52:12;;;;;;;10.35;7.90;;;2.50;99.30;;;;;;4880168;29;20061;-71
2023/01/26 11:55:04;;;;;;;10.15;8.18;;;2.50;99.60;;;;;;4852385;29;20064;-70
2023/01/26 11:57:56;;;;;;;8.77;7.25;;;2.60;99.50;;;;;;4863690;29;20053;-71
2023/01/26 12:00:36;;;;;;;10.40;8.52;;;2.50;99.50;;;;;;4869164;29;20426;-70
2023/01/26 12:03:05;;;;;;;10.30;8.23;;;2.50;99.50;;;;;;4785188;29;20053;-71
2023/01/26 12:05:44;;;;;;;7.15;6.22;;;2.60;99.60;;;;;;4844636;29;20113;-74
2023/01/26 12:08:25;;;;;;;7.10;6.00;;;2.70;99.30;;;;;;4853708;29;20055;-73
2023/01/26 12:11:21;;;;;;;8.27;6.80;;;2.70;99.10;;;;;;4853491;29;20502;-74
2023/01/26 12:14:02;;;;;;;8.65;6.75;;;2.70;98.90;;;;;;4849484;29;20061;-74
2023/01/26 12:16:58;;;;;;;6.97;6.20;;;2.70;98.90;;;;;;4854608;29;20636;-74
2023/01/26 12:20:15;;;;;;;9.90;6.65;;;2.60;98.80;;;;;;4857153;29;20132;-74
2023/01/26 12:22:54;;;;;;;8.27;7.47;;;2.70;99.10;;;;;;4857485;29;20054;-75
2023/01/26 12:25:36;;;;;;;7.18;5.97;;;2.70;98.90;;;;;;4854894;29;20460;-73
2023/01/26 12:28:09;;;;;;;12.80;8.15;;;2.70;98.90;;;;;;4854895;29;20060;-73
2023/01/26 12:31:07;;;;;;;16.08;9.90;;;2.50;98.60;;;;;;4855248;29;20057;-74
2023/01/26 12:33:37;;;;;;;8.88;6.38;;;2.60;98.70;;;;;;4847390;29;20081;-71
2023/01/26 12:36:42;;;;;;;7.57;6.18;;;2.60;98.60;;;;;;4829691;29;20065;-72
2023/01/26 12:39:35;;;;;;;7.38;5.90;;;2.70;98.80;;;;;;4843401;29;20162;-72
2023/01/26 12:42:40;;;;;;;10.00;6.22;;;2.70;98.50;;;;;;4842422;29;20093;-73
2023/01/26 12:45:19;;;;;;;7.78;6.65;;;2.60;98.50;;;;;;4843085;29;20057;-74
2023/01/26 12:47:55;;;;;;;8.20;6.20;;;2.50;98.60;;;;;;4822452;29;20054;-70
2023/01/26 12:50:28;;;;;;;7.65;5.95;;;2.60;98.60;;;;;;4834435;29;20046;-73
2023/01/26 12:53:01;;;;;;;11.05;6.97;;;2.50;98.70;;;;;;4833734;29;20054;-73
2023/01/26 12:55:39;;;;;;;10.75;8.80;;;2.60;98.80;;;;;;4833867;29;20054;-72
2023/01/26 12:58:16;;;;;;;10.30;9.18;;;2.60;98.80;;;;;;4803993;29;20514;-73
2023/01/26 13:01:07;;;;;;;12.27;9.15;;;2.70;98.90;;;;;;4836355;29;20088;-74
2023/01/26 13:03:38;;;;;;;12.98;9.55;;;2.60;98.80;;;;;;4828555;29;20045;-74
2023/01/26 13:06:08;;;;;;;13.38;10.57;;;4.00;99.20;;;;;;4850946;29;20045;-73
2023/01/26 13:08:36;;;;;;;12.02;9.07;;;2.80;99.10;;;;;;4849518;29;20045;-74
2023/01/26 13:11:07;;;;;;;12.20;9.38;;;2.70;99.20;;;;;;4866075;29;20068;-74
2023/01/26 13:13:52;;;;;;;11.45;9.43;;;2.50;99.10;;;;;;4850748;29;20053;-73
2023/01/26 13:16:22;;;;;;;11.77;9.15;;;2.60;99.10;;;;;;4850761;29;20065;-73
2023/01/26 13:18:51;;;;;;;11.80;9.63;;;3.80;99.50;;;;;;4882029;29;20140;-73
2023/01/26 13:21:39;;;;;;;14.32;10.98;;;2.60;99.10;;;;;;4861834;29;20129;-73
2023/01/26 13:24:15;;;;;;;14.48;10.50;;;2.50;99.10;;;;;;4863439;29;20120;-73
2023/01/26 13:26:47;;;;;;;14.93;12.35;;;2.90;99.20;;;;;;4855626;29;20102;-73
2023/01/26 13:29:24;;;;;;;13.02;11.30;;;2.60;99.10;;;;;;4848853;29;20104;-73
2023/01/26 13:31:51;;;;;;;13.18;10.77;;;3.60;99.40;;;;;;4872011;29;20046;-74
2023/01/26 13:34:23;;;;;;;13.82;11.25;;;2.60;99.10;;;;;;4848671;29;20132;-74
2023/01/26 13:36:50;;;;;;;15.57;11.70;;;2.60;99.10;;;;;;4855926;29;20529;-73
2023/01/26 13:39:36;;;;;;;14.80;11.88;;;2.60;99.20;;;;;;4841804;29;20073;-74
2023/01/26 13:42:15;;;;;;;15.15;11.75;;;2.40;98.90;;;;;;4861893;29;20409;-75
2023/01/26 13:44:48;;;;;;;12.45;10.45;;;2.30;98.80;;;;;;4854899;29;20566;-72
2023/01/26 13:47:23;;;;;;;12.93;10.15;;;2.50;98.80;;;;;;4840686;29;20513;-74
2023/01/26 13:49:51;;;;;;;13.43;9.65;;;2.50;98.90;;;;;;4855752;29;20058;-73
2023/01/26 13:52:21;;;;;;;14.13;10.85;;;2.40;98.80;;;;;;4862127;29;20045;-75
2023/01/26 13:54:53;;;;;;;17.17;12.25;;;2.40;98.70;;;;;;4855122;29;20083;-74
2023/01/26 13:57:28;;;;;;;16.80;11.98;;;2.30;98.60;;;;;;4856144;29;20057;-76
2023/01/26 13:59:59;;;;;;;17.92;11.00;;;4.60;99.40;;;;;;4856020;29;20150;-70
2023/01/26 14:02:32;;;;;;;15.98;11.45;;;2.30;98.70;;;;;;4860265;29;20049;-70
2023/01/26 14:05:00;;;;;;;15.60;11.88;;;2.30;98.70;;;;;;4856255;29;20612;-72
2023/01/26 14:07:41;;;;;;;17.10;11.95;;;2.40;98.90;;;;;;4856560;29;20055;-73
2023/01/26 14:10:17;;;;;;;16.15;11.55;;;2.30;98.80;;;;;;4840844;29;20077;-73
2023/01/26 14:12:47;;;;;;;24.00;14.05;;;2.30;99.00;;;;;;4865474;29;20522;-74
2023/01/26 14:15:22;;;;;;;18.73;15.40;;;2.30;99.00;;;;;;4856981;29;20050;-74
2023/01/26 14:17:57;;;;;;;19.23;14.20;;;2.40;98.90;;;;;;4841003;29;20045;-74
2023/01/26 14:20:28;;;;;;;19.27;13.05;;;2.50;98.80;;;;;;4857001;29;20056;-73
2023/01/26 14:23:14;;;;;;;15.23;11.02;;;3.30;99.00;;;;;;4855263;29;20133;-73
2023/01/26 14:26:02;;;;;;;14.88;10.93;;;2.20;98.60;;;;;;4837218;29;20057;-73
2023/01/26 14:28:35;;;;;;;17.00;13.18;;;2.30;98.80;;;;;;4837355;29;20053;-74
2023/01/26 14:31:20;;;;;;;17.58;12.77;;;2.20;98.90;;;;;;4846236;29;20049;-74
2023/01/26 14:33:50;;;;;;;16.83;12.80;;;2.30;98.90;;;;;;4857272;29;20193;-75
2023/01/26 14:36:20;;;;;;;18.13;12.50;;;2.20;98.90;;;;;;4866743;29;20052;-74
2023/01/26 14:38:49;;;;;;;16.35;11.38;;;2.30;99.00;;;;;;4843246;29;20045;-74
2023/01/26 14:41:25;;;;;;;17.23;13.18;;;2.20;98.90;;;;;;4847186;29;20045;-74
2023/01/26 14:43:53;;;;;;;17.40;12.52;;;1.90;99.00;;;;;;4853140;29;20042;-74
2023/01/26 14:46:50;;;;;;;22.55;15.23;;;2.10;99.20;;;;;;4854822;29;20065;-74
2023/01/26 14:49:41;;;;;;;22.65;15.93;;;2.00;99.10;;;;;;4853954;29;20053;-70
2023/01/26 14:52:18;;;;;;;21.85;13.95;;;2.00;99.30;;;;;;4849664;29;20049;-69
2023/01/26 14:54:48;;;;;;;20.02;14.55;;;2.10;99.40;;;;;;4856368;29;20049;-75
2023/01/26 14:57:19;;;;;;;20.10;13.25;;;2.20;99.20;;;;;;4854855;29;20087;-74
2023/01/26 14:59:47;;;;;;;;;;;2.20;99.10;;;;;;4853730;29;20052;-73
2023/01/26 15:02:34;;;;;;;;;;;0.70;98.60;;;;;;4858171;29;19932;-74
2023/01/26 15:05:09;;;;;;;;;;;4.20;99.60;;;;;;4840468;29;19932;-72
2023/01/26 15:07:42;;;;;;;;;;;2.20;99.10;;;;;;4869508;29;19934;-74
2023/01/26 15:10:28;;;;;;;;;;;0.80;98.90;;;;;;4854027;29;19967;-74
2023/01/26 15:13:02;;;;;;;;;;;2.10;99.20;;;;;;4858880;29;19928;-73
2023/01/26 15:15:30;;;;;;;;;;;2.20;99.10;;;;;;4861545;29;20384;-74
2023/01/26 15:18:20;;;;;;;;;;;3.10;99.30;;;;;;4857877;29;20321;-74
2023/01/26 15:20:58;;;;;;;;;;;1.90;98.90;;;;;;4851581;29;19928;-73
2023/01/26 15:23:26;;;;;;;;;;;1.90;99.20;;;;;;4850718;29;20657;-73
2023/01/26 15:25:53;;;;;;;;;;;1.90;99.20;;;;;;4856658;29;19928;-73
2023/01/26 15:28:26;;;;;;;;;;;1.90;99.10;;;;;;4855999;29;19928;-74
2023/01/26 15:30:54;;;;;;;;;;;3.30;99.40;;;;;;4839907;29;19934;-74
2023/01/26 15:33:40;;;;;;;;;;;2.80;99.10;;;;;;4862537;29;19988;-73
2023/01/26 15:36:36;;;;;;;;;;;2.00;98.90;;;;;;4870241;29;19925;-73
2023/01/26 15:39:10;;;;;;;;;;;1.90;98.90;;;;;;4848804;29;19928;-74
2023/01/26 15:41:37;;;;;;;;;;;2.00;99.00;;;;;;4868725;29;20377;-74
2023/01/26 15:44:04;;;;;;;;;;;3.60;99.50;;;;;;4861067;29;20018;-74
2023/01/26 15:46:31;;;;;;;;;;;3.70;99.30;;;;;;4855571;29;19928;-75
2023/01/26 15:48:58;;;;;;;;;;;2.00;98.90;;;;;;4831880;29;20479;-74
2023/01/26 15:51:25;;;;;;;;;;;2.30;99.00;;;;;;4856575;29;19929;-74
2023/01/26 15:53:52;;;;;;;;;;;1.80;98.80;;;;;;4856672;29;20322;-74
2023/01/26 15:56:19;;;;;;;;;;;3.70;99.30;;;;;;4872782;29;19987;-73
2023/01/26 15:58:45;;;;;;;;;;;3.10;98.90;;;;;;4863680;29;20004;-73
2023/01/26 16:01:14;;;;;;;;;;;1.90;98.90;;;;;;4859430;29;19931;-74
2023/01/26 16:03:41;;;;;;;;;;;2.90;99.10;;;;;;4863520;29;19959;-74
2023/01/26 16:06:11;;;;;;;;;;;2.90;99.00;;;;;;4863025;29;19927;-73
2023/01/26 16:08:38;;;;;;;;;;;1.80;98.50;;;;;;4865455;29;19931;-73
2023/01/26 16:11:08;;;;;;;;;;;2.70;98.90;;;;;;4849917;29;19955;-72
2023/01/26 16:13:35;;;;;;;;;;;1.70;98.40;;;;;;4854913;29;19927;-73
2023/01/26 16:16:02;;;;;;;;;;;1.80;98.40;;;;;;4854472;29;20037;-75
2023/01/26 16:18:29;;;;;;;;;;;1.80;98.40;;;;;;4855715;29;20006;-76
2023/01/26 16:20:56;;;;;;;;;;;1.90;98.50;;;;;;4870911;29;20436;-76
2023/01/26 16:23:23;;;;;;;;;;;2.60;98.50;;;;;;4856301;29;19984;-75
2023/01/26 16:25:50;;;;;;;;;;;1.70;98.10;;;;;;4839024;29;20354;-75
2023/01/26 16:28:17;;;;;;;;;;;2.30;98.50;;;;;;4869418;29;20691;-76
2023/01/26 16:30:45;;;;;;;;;;;2.00;98.30;;;;;;4869038;29;19928;-76
2023/01/26 16:33:13;;;;;;;;;;;1.80;98.30;;;;;;4857396;29;19928;-75
2023/01/26 16:35:40;;;;;;;;;;;1.90;98.50;;;;;;4869635;29;19931;-76
2023/01/26 16:38:13;;;;;;;;;;;4.00;99.00;;;;;;4855232;29;19928;-76
2023/01/26 16:40:45;;;;;;;;;;;1.70;98.30;;;;;;4872996;29;19928;-75
2023/01/26 16:43:22;;;;;;;;;;;2.00;98.40;;;;;;4860253;29;19991;-75
2023/01/26 16:45:53;;;;;;;;;;;1.80;98.30;;;;;;4846969;29;20536;-77
2023/01/26 16:48:20;;;;;;;;;;;1.90;98.30;;;;;;4855529;29;20043;-74
2023/01/26 16:50:48;;;;;;;;;;;4.00;98.90;;;;;;4856955;29;19935;-74
2023/01/26 16:53:15;;;;;;;;;;;2.00;98.40;;;;;;4858536;29;19927;-74
2023/01/26 16:55:44;;;;;;;;;;;1.80;98.10;;;;;;4854437;29;19928;-74
2023/01/26 16:58:11;;;;;;;;;;;1.80;98.10;;;;;;4858385;29;19928;-74
2023/01/26 17:00:38;;;;;;;;;;;1.90;98.00;;;;;;4870916;29;19983;-74
2023/01/26 17:03:07;;;;;;;;;;;3.20;98.50;;;;;;4857343;29;19934;-74
2023/01/26 17:05:34;;;;;;;;;;;1.80;97.90;;;;;;4856420;29;19931;-74
2023/01/26 17:08:01;;;;;;;;;;;2.90;98.30;;;;;;4847325;29;20561;-75
2023/01/26 17:10:28;;;;;;;;;;;2.10;98.00;;;;;;4856479;29;20022;-74
2023/01/26 17:12:54;;;;;;;;;;;1.80;97.90;;;;;;4863239;29;19928;-74
2023/01/26 17:15:23;;;;;;;;;;;2.30;98.00;;;;;;4867150;29;20301;-74
2023/01/26 17:17:50;;;;;;;;;;;1.70;97.90;;;;;;4849876;29;19928;-74
2023/01/26 17:20:17;;;;;;;;;;;1.80;98.10;;;;;;4877876;29;20274;-73
2023/01/26 17:22:46;;;;;;;;;;;1.90;98.40;;;;;;4849764;29;20342;-74
2023/01/26 17:25:13;;;;;;;;;;;1.90;98.40;;;;;;4864413;29;19928;-75
2023/01/26 17:27:43;;;;;;;;;;;4.50;99.10;;;;;;4867098;29;19932;-75
2023/01/26 17:30:10;;;;;;;;;;;2.80;98.40;;;;;;4863692;29;20428;-74
2023/01/26 17:32:38;;;;;;;;;;;1.90;98.40;;;;;;4862389;29;20430;-75
2023/01/26 17:35:05;;;;;;;;;;;2.00;98.30;;;;;;4867209;29;19954;-75
2023/01/26 17:37:32;;;;;;;;;;;1.80;98.30;;;;;;4848739;29;19927;-75
2023/01/26 17:39:58;;;;;;;;;;;1.90;98.30;;;;;;4866486;29;19927;-75
2023/01/26 17:42:27;;;;;;;;;;;2.00;98.30;;;;;;4868261;29;20049;-74
2023/01/26 17:44:56;;;;;;;;;;;1.90;98.30;;;;;;4863851;29;19928;-75
2023/01/26 17:47:23;;;;;;;;;;;1.90;98.00;;;;;;4870971;29;19928;-74
2023/01/26 17:49:50;;;;;;;;;;;1.80;97.90;;;;;;4864861;29;19928;-75
2023/01/26 17:52:17;;;;;;;;;;;1.90;98.10;;;;;;4847313;29;19928;-74
2023/01/26 17:54:44;;;;;;;;;;;1.90;98.20;;;;;;4857654;29;19924;-74
2023/01/26 17:57:12;;;;;;;;;;;2.00;98.10;;;;;;4856334;29;19934;-72
2023/01/26 17:59:39;;;;;;;;;;;4.20;98.50;;;;;;4858679;29;20030;-73
2023/01/26 18:02:06;;;;;;;;;;;3.30;98.20;;;;;;4858004;29;19939;-73
2023/01/26 18:04:33;;;;;;;;;;;1.70;97.80;;;;;;4856607;29;19928;-74
2023/01/26 18:07:00;;;;;;;;;;;1.70;98.00;;;;;;4859168;29;19931;-74
2023/01/26 18:09:27;;;;;;;;;;;1.90;97.70;;;;;;4871908;29;19935;-74
2023/01/26 18:11:54;;;;;;;;;;;1.80;97.90;;;;;;4856323;29;19928;-74
2023/01/26 18:14:21;;;;;;;;;;;1.70;97.80;;;;;;4857673;29;19935;-77
2023/01/26 18:16:48;;;;;;;;;;;1.80;97.70;;;;;;4857922;29;19928;-73
2023/01/26 18:19:15;;;;;;;;;;;3.10;98.20;;;;;;4855929;29;20389;-74
2023/01/26 18:21:42;;;;;;;;;;;0.60;97.80;;;;;;4850248;29;19939;-73
2023/01/26 18:24:09;;;;;;;;;;;0.20;97.80;;;;;;4861216;29;19924;-73
2023/01/26 18:26:36;;;;;;;;;;;1.80;98.00;;;;;;4855775;29;19928;-71
2023/01/26 18:29:03;;;;;;;;;;;1.90;98.00;;;;;;4857659;29;19934;-73
2023/01/26 18:31:33;;;;;;;;;;;1.80;98.00;;;;;;4855898;29;19935;-73
2023/01/26 18:34:03;;;;;;;;;;;1.80;98.10;;;;;;4855459;29;20014;-73
2023/01/26 18:36:29;;;;;;;;;;;2.00;98.10;;;;;;4839185;29;19928;-73
2023/01/26 18:39:04;;;;;;;;;;;1.60;98.10;;;;;;4853671;29;19928;-73
2023/01/26 18:41:34;;;;;;;;;;;1.60;98.20;;;;;;4844646;29;20030;-73